HKEL

Eldoret International Airport

Eldoret, Kenya

HKEL 110900Z 06010KT 9999 FEW022CB BKN280 22/06 Q1025

Observed Flight Rules
Dec-11 @ 09:00 UTC (33 minutes ago) Visual Flight Rules
Wind Visibility Clouds
60° at 10 knots 10,000+ meters
  • Few at 2,200' AGL
  • Broken at 28,000' AGL
Temperatures Readings
Current 22°C / 72°F
Dewpoint 6°C / 43°F
Humidity 36%
Altimeter 30.27" Hg
Pressure 1025 hPa
Elevation 2133
Observed Flight Rules
Dec-11 @ 09:00 UTC
(33 minutes ago)
VFR
Wind Visibility
60° at 10 knots 10,000+ meters
Clouds
  • Few at 2,200' AGL
  • Broken at 28,000' AGL
Temperature Dewpoint
22°C / 72°F 6°C / 43°F
Humidity Altimeter Pressure
36% 30.27" Hg 1025 hPa